www.cux-wetter.de
Wetterdaten: Montag, 27.08.2012
Datum Zeit Temp. A. Feuchte A. Luftdruck Regen Wind Richtung Richtung Sonnenschein Solar Taupunkt Windchill Windben
27.08.2012 00:00 16,8 C 73 % 1014,5 hPa 0,0 l/m 20,5 km/h (4 Bft) N 355 0 min 0 W/m 11,9 C 12,0 C 20,5 km/h (4 Bft)
27.08.2012 00:15 16,7 C 73 % 1014,5 hPa 0,0 l/m 27,5 km/h (5 Bft) N-NO 15 0 min 0 W/m 11,8 C 10,5 C 27,5 km/h (5 Bft)
27.08.2012 00:30 16,6 C 71 % 1014,5 hPa 0,0 l/m 24,3 km/h (4 Bft) NO 35 0 min 0 W/m 11,3 C 10,9 C 24,3 km/h (4 Bft)
27.08.2012 00:45 16,5 C 71 % 1014,5 hPa 0,0 l/m 22,3 km/h (4 Bft) N 10 0 min 0 W/m 11,2 C 11,2 C 22,3 km/h (4 Bft)
27.08.2012 01:00 16,6 C 70 % 1014,5 hPa 0,0 l/m 24,6 km/h (4 Bft) N-NO 15 0 min 0 W/m 11,1 C 10,9 C 24,6 km/h (4 Bft)
27.08.2012 01:15 16,5 C 72 % 1014,5 hPa 0,0 l/m 26,3 km/h (4 Bft) N-NO 25 0 min 0 W/m 11,4 C 10,4 C 26,3 km/h (4 Bft)
27.08.2012 01:30 16,4 C 69 % 1014,5 hPa 0,0 l/m 29,7 km/h (5 Bft) NO 40 0 min 0 W/m 10,7 C 9,7 C 29,7 km/h (5 Bft)
27.08.2012 01:45 16,4 C 69 % 1015,5 hPa 0,0 l/m 24,0 km/h (4 Bft) N 350 0 min 0 W/m 10,7 C 10,7 C 24,0 km/h (4 Bft)
27.08.2012 02:00 16,1 C 70 % 1015,5 hPa 0,0 l/m 32,2 km/h (5 Bft) N-NO 25 0 min 0 W/m 10,6 C 8,9 C 32,2 km/h (5 Bft)
27.08.2012 02:15 16,0 C 71 % 1015,5 hPa 0,0 l/m 26,8 km/h (4 Bft) N 360 0 min 0 W/m 10,7 C 9,6 C 26,8 km/h (4 Bft)
27.08.2012 02:30 16,0 C 70 % 1015,5 hPa 0,0 l/m 25,7 km/h (4 Bft) N 350 0 min 0 W/m 10,5 C 9,8 C 25,7 km/h (4 Bft)
27.08.2012 02:45 15,8 C 70 % 1015,5 hPa 0,0 l/m 25,4 km/h (4 Bft) N 355 0 min 0 W/m 10,3 C 9,6 C 25,4 km/h (4 Bft)
27.08.2012 03:00 15,6 C 70 % 1015,5 hPa 0,0 l/m 21,4 km/h (4 Bft) N 350 0 min 0 W/m 10,1 C 10,2 C 21,4 km/h (4 Bft)
27.08.2012 03:15 15,6 C 69 % 1015,5 hPa 0,0 l/m 27,3 km/h (5 Bft) N-NO 15 0 min 0 W/m 9,9 C 9,0 C 27,3 km/h (5 Bft)
27.08.2012 03:30 15,5 C 70 % 1015,5 hPa 0,0 l/m 22,2 km/h (4 Bft) N 350 0 min 0 W/m 10,1 C 9,9 C 22,2 km/h (4 Bft)
27.08.2012 03:45 15,5 C 69 % 1016,5 hPa 0,0 l/m 22,1 km/h (4 Bft) N-NW 335 0 min 0 W/m 9,8 C 9,9 C 22,1 km/h (4 Bft)
27.08.2012 04:00 15,4 C 70 % 1016,5 hPa 0,0 l/m 22,7 km/h (4 Bft) N-NW 345 0 min 0 W/m 10,0 C 9,6 C 22,7 km/h (4 Bft)
27.08.2012 04:15 15,2 C 70 % 1016,5 hPa 0,0 l/m 19,1 km/h (3 Bft) N-NW 335 0 min 0 W/m 9,8 C 10,2 C 19,1 km/h (3 Bft)
27.08.2012 04:30 15,2 C 70 % 1016,5 hPa 0,0 l/m 20,7 km/h (4 Bft) N-NW 335 0 min 0 W/m 9,8 C 9,8 C 20,7 km/h (4 Bft)
27.08.2012 04:45 15,1 C 69 % 1016,5 hPa 0,0 l/m 17,6 km/h (3 Bft) N-NW 335 0 min 0 W/m 9,5 C 10,5 C 17,6 km/h (3 Bft)
27.08.2012 05:00 15,0 C 70 % 1016,5 hPa 0,0 l/m 17,5 km/h (3 Bft) NW 320 0 min 0 W/m 9,6 C 10,4 C 17,5 km/h (3 Bft)
27.08.2012 05:15 15,0 C 70 % 1016,5 hPa 0,0 l/m 13,7 km/h (3 Bft) N-NW 330 0 min 0 W/m 9,6 C 11,6 C 13,7 km/h (3 Bft)
27.08.2012 05:30 15,0 C 70 % 1017,5 hPa 0,0 l/m 14,0 km/h (3 Bft) N-NW 330 0 min 0 W/m 9,6 C 11,5 C 14,0 km/h (3 Bft)
27.08.2012 05:45 15,0 C 69 % 1017,5 hPa 0,0 l/m 13,8 km/h (3 Bft) N-NW 345 0 min 0 W/m 9,4 C 11,6 C 13,8 km/h (3 Bft)
27.08.2012 06:00 15,2 C 69 % 1017,5 hPa 0,0 l/m 13,8 km/h (3 Bft) N-NW 345 0 min 0 W/m 9,6 C 11,8 C 13,8 km/h (3 Bft)
27.08.2012 06:15 15,2 C 69 % 1017,5 hPa 0,0 l/m 20,2 km/h (4 Bft) N-NW 330 0 min 0 W/m 9,6 C 10,0 C 20,2 km/h (4 Bft)
27.08.2012 06:30 15,2 C 68 % 1017,5 hPa 0,0 l/m 14,5 km/h (3 Bft) N 350 0 min 0 W/m 9,3 C 11,6 C 14,5 km/h (3 Bft)
27.08.2012 06:45 15,2 C 69 % 1017,5 hPa 0,0 l/m 14,5 km/h (3 Bft) N 350 0 min 0 W/m 9,6 C 11,6 C 14,5 km/h (3 Bft)
27.08.2012 07:00 15,3 C 68 % 1017,5 hPa 0,0 l/m 16,2 km/h (3 Bft) N-NW 335 0 min 0 W/m 9,4 C 11,2 C 16,2 km/h (3 Bft)
27.08.2012 07:15 15,4 C 69 % 1017,5 hPa 0,0 l/m 22,3 km/h (4 Bft) N-NW 335 0 min 0 W/m 9,7 C 9,7 C 22,3 km/h (4 Bft)
27.08.2012 07:30 15,4 C 68 % 1018,5 hPa 0,0 l/m 18,0 km/h (3 Bft) N 350 0 min 0 W/m 9,5 C 10,8 C 18,0 km/h (3 Bft)
27.08.2012 07:45 15,4 C 68 % 1018,5 hPa 0,0 l/m 18,0 km/h (3 Bft) N 350 0 min 0 W/m 9,5 C 10,8 C 18,0 km/h (3 Bft)
27.08.2012 08:00 15,4 C 67 % 1018,5 hPa 0,0 l/m 20,1 km/h (4 Bft) N-NW 335 0 min 0 W/m 9,3 C 10,2 C 20,1 km/h (4 Bft)
27.08.2012 08:15 15,6 C 67 % 1018,5 hPa 0,0 l/m 25,8 km/h (4 Bft) NW 310 0 min 0 W/m 9,5 C 9,3 C 25,8 km/h (4 Bft)
27.08.2012 08:30 15,6 C 67 % 1018,5 hPa 0,0 l/m 18,5 km/h (3 Bft) N 5 0 min 0 W/m 9,5 C 10,9 C 18,5 km/h (3 Bft)
27.08.2012 08:45 15,7 C 67 % 1018,5 hPa 0,0 l/m 15,6 km/h (3 Bft) N 355 0 min 0 W/m 9,6 C 11,9 C 15,6 km/h (3 Bft)
27.08.2012 09:00 15,8 C 66 % 1018,5 hPa 0,0 l/m 14,3 km/h (3 Bft) N-NW 330 0 min 0 W/m 9,5 C 12,4 C 14,3 km/h (3 Bft)
27.08.2012 09:15 15,9 C 66 % 1018,5 hPa 0,0 l/m 16,3 km/h (3 Bft) N 10 0 min 0 W/m 9,6 C 11,9 C 16,3 km/h (3 Bft)
27.08.2012 09:30 16,1 C 65 % 1018,5 hPa 0,0 l/m 15,4 km/h (3 Bft) NW 315 0 min 0 W/m 9,5 C 12,4 C 15,4 km/h (3 Bft)
27.08.2012 09:45 16,2 C 66 % 1018,5 hPa 0,0 l/m 15,3 km/h (3 Bft) N-NW 340 0 min 0 W/m 9,8 C 12,6 C 15,3 km/h (3 Bft)
27.08.2012 10:00 16,3 C 65 % 1018,5 hPa 0,0 l/m 15,5 km/h (3 Bft) NW 320 0 min 0 W/m 9,7 C 12,6 C 15,5 km/h (3 Bft)
27.08.2012 10:15 16,6 C 65 % 1018,5 hPa 0,0 l/m 8,5 km/h (2 Bft) N-NW 330 0 min 0 W/m 10,0 C 15,5 C 8,5 km/h (2 Bft)
27.08.2012 10:30 17,0 C 64 % 1018,5 hPa 0,0 l/m 14,8 km/h (3 Bft) N-NW 345 0 min 0 W/m 10,1 C 13,7 C 14,8 km/h (3 Bft)
27.08.2012 10:45 17,6 C 63 % 1018,5 hPa 0,0 l/m 14,0 km/h (3 Bft) N 355 0 min 0 W/m 10,5 C 14,6 C 14,0 km/h (3 Bft)
27.08.2012 11:00 18,1 C 62 % 1018,5 hPa 0,0 l/m 14,0 km/h (3 Bft) N 355 0 min 0 W/m 10,7 C 15,2 C 14,0 km/h (3 Bft)
27.08.2012 11:15 18,4 C 62 % 1018,5 hPa 0,0 l/m 14,0 km/h (3 Bft) N 355 0 min 0 W/m 11,0 C 15,6 C 14,0 km/h (3 Bft)
27.08.2012 11:30 18,8 C 60 % 1019,5 hPa 0,0 l/m 14,0 km/h (3 Bft) N 355 0 min 0 W/m 10,9 C 16,1 C 14,0 km/h (3 Bft)
27.08.2012 11:45 18,8 C 60 % 1019,5 hPa 0,0 l/m 16,3 km/h (3 Bft) NW 315 0 min 0 W/m 10,9 C 15,5 C 16,3 km/h (3 Bft)
27.08.2012 12:00 19,2 C 61 % 1019,5 hPa 0,0 l/m 15,5 km/h (3 Bft) NW 315 0 min 0 W/m 11,5 C 16,2 C 15,5 km/h (3 Bft)
27.08.2012 12:15 19,8 C 59 % 1019,5 hPa 0,0 l/m 15,1 km/h (3 Bft) NW 310 0 min 0 W/m 11,6 C 17,0 C 15,1 km/h (3 Bft)
27.08.2012 12:30 20,0 C 59 % 1019,5 hPa 0,0 l/m 15,1 km/h (3 Bft) NW 310 0 min 0 W/m 11,7 C 17,2 C 15,1 km/h (3 Bft)
27.08.2012 12:45 20,2 C 59 % 1019,5 hPa 0,0 l/m 13,8 km/h (3 Bft) NW 320 0 min 0 W/m 11,9 C 17,8 C 13,8 km/h (3 Bft)
27.08.2012 13:00 20,2 C 60 % 1019,5 hPa 0,0 l/m 13,3 km/h (3 Bft) N 355 0 min 0 W/m 12,2 C 17,9 C 13,3 km/h (3 Bft)
27.08.2012 13:15 20,4 C 59 % 1019,5 hPa 0,0 l/m 11,5 km/h (2 Bft) N 5 0 min 0 W/m 12,1 C 18,6 C 11,5 km/h (2 Bft)
27.08.2012 13:30 20,8 C 58 % 1019,5 hPa 0,0 l/m 11,0 km/h (2 Bft) NW 325 0 min 0 W/m 12,2 C 19,2 C 11,0 km/h (2 Bft)
27.08.2012 13:45 20,5 C 59 % 1019,5 hPa 0,0 l/m 8,4 km/h (2 Bft) W-NW 285 0 min 0 W/m 12,2 C 19,7 C 8,4 km/h (2 Bft)
27.08.2012 14:00 20,8 C 59 % 1019,5 hPa 0,0 l/m 11,3 km/h (2 Bft) NW 325 0 min 0 W/m 12,5 C 19,1 C 11,3 km/h (2 Bft)
27.08.2012 14:15 21,0 C 58 % 1019,5 hPa 0,0 l/m 5,0 km/h (1 Bft) NW 310 0 min 0 W/m 12,4 C 21,0 C 5,0 km/h (1 Bft)
27.08.2012 14:30 21,6 C 59 % 1019,5 hPa 0,0 l/m 9,6 km/h (2 Bft) W-SW 245 0 min 0 W/m 13,2 C 20,5 C 9,6 km/h (2 Bft)
27.08.2012 14:45 21,5 C 57 % 1019,5 hPa 0,0 l/m 14,0 km/h (3 Bft) NW 315 0 min 0 W/m 12,6 C 19,3 C 14,0 km/h (3 Bft)
27.08.2012 15:00 21,0 C 59 % 1018,5 hPa 0,0 l/m 11,7 km/h (2 Bft) W 260 0 min 0 W/m 12,7 C 19,3 C 11,7 km/h (2 Bft)
27.08.2012 15:15 21,3 C 58 % 1018,5 hPa 0,0 l/m 6,1 km/h (2 Bft) W-SW 250 0 min 0 W/m 12,7 C 21,3 C 6,1 km/h (2 Bft)
27.08.2012 15:30 21,9 C 59 % 1018,5 hPa 0,0 l/m 11,7 km/h (2 Bft) W-SW 250 0 min 0 W/m 13,5 C 20,3 C 11,7 km/h (2 Bft)
27.08.2012 15:45 22,2 C 58 % 1018,5 hPa 0,0 l/m 12,6 km/h (3 Bft) S-SW 205 0 min 0 W/m 13,5 C 20,4 C 12,6 km/h (3 Bft)
27.08.2012 16:00 22,4 C 57 % 1018,5 hPa 0,0 l/m 12,6 km/h (3 Bft) SW 215 0 min 0 W/m 13,5 C 20,7 C 12,6 km/h (3 Bft)
27.08.2012 16:15 22,1 C 59 % 1018,5 hPa 0,0 l/m 8,6 km/h (2 Bft) O-NO 70 0 min 0 W/m 13,7 C 21,4 C 8,6 km/h (2 Bft)
27.08.2012 16:30 22,0 C 59 % 1018,5 hPa 0,0 l/m 7,9 km/h (2 Bft) O-SO 120 0 min 0 W/m 13,6 C 21,5 C 7,9 km/h (2 Bft)
27.08.2012 16:45 21,6 C 61 % 1018,5 hPa 0,0 l/m 5,6 km/h (2 Bft) O-NO 70 0 min 0 W/m 13,7 C 21,6 C 5,6 km/h (2 Bft)
27.08.2012 17:00 21,6 C 62 % 1017,5 hPa 0,0 l/m 7,1 km/h (2 Bft) O-SO 110 0 min 0 W/m 14,0 C 21,3 C 7,1 km/h (2 Bft)
27.08.2012 17:15 21,4 C 62 % 1018,5 hPa 0,0 l/m 8,5 km/h (2 Bft) SO 140 0 min 0 W/m 13,8 C 20,7 C 8,5 km/h (2 Bft)
27.08.2012 17:30 21,0 C 63 % 1018,5 hPa 0,0 l/m 6,7 km/h (2 Bft) O-SO 120 0 min 0 W/m 13,7 C 20,9 C 6,7 km/h (2 Bft)
27.08.2012 17:45 20,7 C 64 % 1017,5 hPa 0,0 l/m 8,7 km/h (2 Bft) S-SO 150 0 min 0 W/m 13,6 C 19,8 C 8,7 km/h (2 Bft)
27.08.2012 18:00 20,5 C 63 % 1017,5 hPa 0,0 l/m 13,1 km/h (3 Bft) S-SW 210 0 min 0 W/m 13,2 C 18,3 C 13,1 km/h (3 Bft)
27.08.2012 18:15 20,6 C 63 % 1017,5 hPa 0,0 l/m 7,0 km/h (2 Bft) S-SW 210 0 min 0 W/m 13,3 C 20,4 C 7,0 km/h (2 Bft)
27.08.2012 18:30 20,2 C 65 % 1017,5 hPa 0,0 l/m 11,6 km/h (2 Bft) SW 225 0 min 0 W/m 13,4 C 18,4 C 11,6 km/h (2 Bft)
27.08.2012 18:45 19,9 C 65 % 1017,5 hPa 0,0 l/m 10,8 km/h (2 Bft) S-SW 195 0 min 0 W/m 13,1 C 18,3 C 10,8 km/h (2 Bft)
27.08.2012 19:00 19,6 C 66 % 1017,5 hPa 0,0 l/m 10,8 km/h (2 Bft) S-SW 195 0 min 0 W/m 13,1 C 17,9 C 10,8 km/h (2 Bft)
27.08.2012 19:15 19,4 C 67 % 1017,5 hPa 0,0 l/m 10,8 km/h (2 Bft) S-SW 195 0 min 0 W/m 13,1 C 17,7 C 10,8 km/h (2 Bft)
27.08.2012 19:30 19,2 C 68 % 1016,5 hPa 0,0 l/m 0,7 km/h (0 Bft) SW 215 0 min 0 W/m 13,1 C 19,2 C 0,7 km/h (0 Bft)
27.08.2012 19:45 18,9 C 68 % 1016,5 hPa 0,0 l/m 0,3 km/h (0 Bft) S-SW 195 0 min 0 W/m 12,9 C 18,9 C 0,3 km/h (0 Bft)
27.08.2012 20:00 18,7 C 70 % 1016,5 hPa 0,0 l/m 5,6 km/h (2 Bft) S-SO 165 0 min 0 W/m 13,1 C 18,7 C 5,6 km/h (2 Bft)
27.08.2012 20:15 18,3 C 71 % 1016,5 hPa 0,0 l/m 8,9 km/h (2 Bft) S 170 0 min 0 W/m 12,9 C 17,2 C 8,9 km/h (2 Bft)
27.08.2012 20:30 18,1 C 72 % 1016,5 hPa 0,0 l/m 7,6 km/h (2 Bft) S 170 0 min 0 W/m 13,0 C 17,5 C 7,6 km/h (2 Bft)
27.08.2012 20:45 17,9 C 72 % 1016,5 hPa 0,0 l/m 5,7 km/h (2 Bft) S-SO 160 0 min 0 W/m 12,8 C 17,9 C 5,7 km/h (2 Bft)
27.08.2012 21:00 17,6 C 73 % 1017,5 hPa 0,0 l/m 4,8 km/h (1 Bft) S-SO 165 0 min 0 W/m 12,7 C 17,6 C 4,8 km/h (1 Bft)
27.08.2012 21:15 17,4 C 74 % 1017,5 hPa 0,0 l/m 4,2 km/h (1 Bft) S-SO 160 0 min 0 W/m 12,7 C 17,4 C 4,2 km/h (1 Bft)
27.08.2012 21:30 17,4 C 75 % 1016,5 hPa 0,0 l/m 3,8 km/h (1 Bft) S-SO 160 0 min 0 W/m 12,9 C 17,4 C 3,8 km/h (1 Bft)
27.08.2012 21:45 17,3 C 75 % 1016,5 hPa 0,0 l/m 5,1 km/h (1 Bft) S 170 0 min 0 W/m 12,8 C 17,3 C 5,1 km/h (1 Bft)
27.08.2012 22:00 17,2 C 76 % 1016,5 hPa 0,0 l/m 5,9 km/h (2 Bft) S-SO 150 0 min 0 W/m 12,9 C 17,2 C 5,9 km/h (2 Bft)
27.08.2012 22:15 17,2 C 76 % 1016,5 hPa 0,0 l/m 6,3 km/h (2 Bft) S 175 0 min 0 W/m 12,9 C 17,2 C 6,3 km/h (2 Bft)
27.08.2012 22:30 17,1 C 76 % 1016,5 hPa 0,0 l/m 5,4 km/h (2 Bft) S-SO 160 0 min 0 W/m 12,8 C 17,1 C 5,4 km/h (2 Bft)
27.08.2012 22:45 17,0 C 77 % 1016,5 hPa 0,0 l/m 6,1 km/h (2 Bft) S-SO 160 0 min 0 W/m 12,9 C 17,0 C 6,1 km/h (2 Bft)
27.08.2012 23:00 17,0 C 77 % 1016,5 hPa 0,0 l/m 8,7 km/h (2 Bft) S-SO 165 0 min 0 W/m 12,9 C 15,9 C 8,7 km/h (2 Bft)
27.08.2012 23:14 16,9 C 76 % 1016,5 hPa 0,0 l/m 7,8 km/h (2 Bft) S-SO 165 0 min 0 W/m 12,6 C 16,2 C 7,8 km/h (2 Bft)
27.08.2012 23:30 17,0 C 76 % 1016,5 hPa 0,0 l/m 7,9 km/h (2 Bft) S 170 0 min 0 W/m 12,7 C 16,2 C 7,9 km/h (2 Bft)
27.08.2012 23:45 16,9 C 76 % 1016,5 hPa 0,0 l/m 9,7 km/h (2 Bft) S 185 0 min 0 W/m 12,6 C 15,3 C 9,7 km/h (2 Bft)
_ Min-Zeit 05:00 14:45 00:00 - 19:45 - - - - 08:00 02:00 19:45
Minimum _ 15,0 C 57 % 1014,5 hPa - 0,3 km/h (0 Bft) - - - - 9,3 C 8,9 C 0,3 km/h (0 Bft)
_ Max-Zeit 16:00 22:45 11:30 00:00 02:00 - - 00:00 00:00 17:00 16:45 02:00
Maximum _ 22,4 C 77 % 1019,5 hPa 0,0 l/m 32,2 km/h
N-NO (5 Bft)
- - 0 min 0 W/m 14,0 C 21,6 C 32,2 km/h
N-NO (5 Bft)
Durchschnitt _ 17,8 C 67 % 1017,5 hPa #0,0 l/m 14,0 km/h (3 Bft) N - #0 min. 0 W/m 11,5 C 15,0 C 14,0 km/h (3 Bft)
copyright by Holger Just